Time;durP1;ratioP1;P1;durP2;ratioP2;P2;SDS_P1;SDS_P2;PMS_P1;PMS_P2;Temp;Humidity;BMP_temperature;BMP_pressure;BME280_temperature;BME280_humidity;BME280_pressure;Samples;Min_cycle;Max_cycle;Signal;HPM_P1;HPM_P2
2022/10/07 00:00:51;;;;;;;0.30;0.30;;;;;;;7.69;100.00;102887.44;10571200;28;20048;-75
2022/10/07 00:06:06;;;;;;;0.10;0.10;;;;;;;7.69;100.00;102890.00;10529702;28;20102;-76
2022/10/07 00:11:12;;;;;;;0.88;0.38;;;;;;;7.78;100.00;102888.06;10563951;28;20051;-76
2022/10/07 00:16:16;;;;;;;2.83;0.85;;;;;;;7.75;100.00;102882.72;10581783;28;20444;-76
2022/10/07 00:21:18;;;;;;;0.40;0.20;;;;;;;7.92;100.00;102882.22;10561285;28;20047;-76
2022/10/07 00:26:23;;;;;;;0.22;0.03;;;;;;;7.89;100.00;102883.69;10562701;28;20047;-76
2022/10/07 00:31:29;;;;;;;0.13;0.13;;;;;;;7.99;100.00;102887.75;10580416;28;20482;-76
2022/10/07 00:36:34;;;;;;;0.32;0.32;;;;;;;8.06;100.00;102874.56;10580584;28;20047;-76
2022/10/07 00:41:44;;;;;;;0.20;0.20;;;;;;;8.09;100.00;102869.63;10552655;28;20083;-77
2022/10/07 00:46:46;;;;;;;1.17;0.32;;;;;;;8.08;100.00;102870.41;10576861;28;20067;-76
2022/10/07 00:51:51;;;;;;;0.80;0.40;;;;;;;8.02;100.00;102867.41;10556443;28;20071;-77
2022/10/07 00:56:52;;;;;;;1.58;0.30;;;;;;;7.98;100.00;102860.31;10568507;28;20142;-76
2022/10/07 01:01:54;;;;;;;0.52;0.20;;;;;;;8.02;100.00;102855.50;10578055;28;20073;-76
2022/10/07 01:06:56;;;;;;;0.63;0.30;;;;;;;7.92;100.00;102856.56;10580834;28;20088;-76
2022/10/07 01:12:10;;;;;;;0.05;0.00;;;;;;;7.89;100.00;102851.19;10579797;28;20078;-77
2022/10/07 01:17:37;;;;;;;0.30;0.28;;;;;;;7.80;100.00;102855.69;10537422;28;20044;-76
2022/10/07 01:23:13;;;;;;;0.03;0.03;;;;;;;7.76;100.00;102853.72;10542151;28;20131;-77
2022/10/07 01:28:27;;;;;;;9.90;1.02;;;;;;;7.82;100.00;102846.44;10564244;28;20536;-77
2022/10/07 01:33:32;;;;;;;4.15;0.60;;;;;;;7.56;100.00;102840.38;10560941;28;20391;-77
2022/10/07 01:38:37;;;;;;;0.10;0.10;;;;;;;7.50;100.00;102839.97;10576457;28;20032;-77
2022/10/07 01:43:41;;;;;;;0.47;0.15;;;;;;;7.50;100.00;102839.97;10559536;28;20154;-76
2022/10/07 01:48:45;;;;;;;0.90;0.30;;;;;;;7.50;100.00;102822.00;10560030;28;20077;-76
2022/10/07 01:54:05;;;;;;;0.20;0.20;;;;;;;7.64;100.00;102822.97;10553579;28;20131;-76
2022/10/07 01:59:22;;;;;;;0.30;0.23;;;;;;;7.58;100.00;102802.91;10554304;28;20047;-76
2022/10/07 02:04:44;;;;;;;0.15;0.15;;;;;;;7.60;100.00;102809.03;10587276;28;20043;-77
2022/10/07 02:10:17;;;;;;;0.20;0.20;;;;;;;7.84;100.00;102811.50;10573964;28;20044;-77
2022/10/07 02:15:31;;;;;;;0.73;0.30;;;;;;;7.87;100.00;102800.56;10582705;28;20093;-77
2022/10/07 02:20:36;;;;;;;0.20;0.20;;;;;;;7.77;100.00;102794.78;10587434;28;20067;-77
2022/10/07 02:25:44;;;;;;;0.17;0.17;;;;;;;7.62;100.00;102789.53;10551574;28;20530;-76
2022/10/07 02:30:52;;;;;;;0.00;0.00;;;;;;;7.68;100.00;102793.28;10568590;28;20044;-76
2022/10/07 02:36:06;;;;;;;0.10;0.10;;;;;;;7.58;100.00;102784.06;10559071;28;20439;-76
2022/10/07 02:41:11;;;;;;;0.30;0.20;;;;;;;7.57;100.00;102790.88;10553744;28;20075;-75
2022/10/07 02:46:25;;;;;;;2.05;0.52;;;;;;;7.46;100.00;102779.00;10568234;28;20070;-76
2022/10/07 02:51:35;;;;;;;0.32;0.32;;;;;;;7.51;100.00;102780.19;10567962;28;20044;-75
2022/10/07 02:56:40;;;;;;;0.17;0.17;;;;;;;7.33;100.00;102773.81;10567988;28;20582;-76
2022/10/07 03:01:51;;;;;;;0.98;0.50;;;;;;;7.35;100.00;102769.66;10566724;28;20051;-75
2022/10/07 03:06:54;;;;;;;0.43;0.20;;;;;;;7.42;100.00;102766.72;10555850;28;20047;-75
2022/10/07 03:11:57;;;;;;;0.20;0.20;;;;;;;7.32;100.00;102761.75;10572020;28;20138;-76
2022/10/07 03:16:59;;;;;;;1.08;0.65;;;;;;;7.27;100.00;102758.88;10565469;28;20044;-76
2022/10/07 03:22:01;;;;;;;0.10;0.10;;;;;;;7.24;100.00;102754.44;10566915;28;20475;-75
2022/10/07 03:27:07;;;;;;;0.08;0.08;;;;;;;7.18;100.00;102759.13;10565569;28;20044;-75
2022/10/07 03:32:11;;;;;;;1.65;1.17;;;;;;;7.21;100.00;102750.78;10582069;28;20044;-76
2022/10/07 03:37:13;;;;;;;0.25;0.10;;;;;;;7.15;100.00;102751.22;10552410;28;20040;-76
2022/10/07 03:42:15;;;;;;;0.57;0.57;;;;;;;7.19;100.00;102745.50;10565436;28;20486;-76
2022/10/07 03:47:16;;;;;;;3.72;0.80;;;;;;;7.25;100.00;102745.97;10583437;28;20043;-76
2022/10/07 03:52:19;;;;;;;3.33;0.95;;;;;;;7.23;100.00;102739.84;10580498;28;20455;-76
2022/10/07 04:02:42;;;;;;;0.00;0.00;;;;;;;7.15;100.00;102733.28;10583460;28;20073;-76
2022/10/07 04:07:46;;;;;;;0.08;0.08;;;;;;;7.15;100.00;102728.16;10581402;28;20047;-76
2022/10/07 04:12:52;;;;;;;1.13;0.65;;;;;;;7.06;100.00;102727.50;10564139;28;20108;-76
2022/10/07 04:17:58;;;;;;;0.20;0.15;;;;;;;7.05;100.00;102725.72;10564633;28;20043;-76
2022/10/07 04:23:03;;;;;;;0.10;0.10;;;;;;;7.02;100.00;102733.22;10563775;28;20043;-76
2022/10/07 04:28:14;;;;;;;0.98;0.47;;;;;;;6.99;100.00;102727.09;10562869;28;20036;-76
2022/10/07 04:33:22;;;;;;;0.85;0.55;;;;;;;6.93;100.00;102726.66;10580860;28;20044;-76
2022/10/07 04:38:26;;;;;;;0.10;0.10;;;;;;;6.81;100.00;102731.81;10560264;28;20130;-76
2022/10/07 04:43:35;;;;;;;0.65;0.22;;;;;;;6.85;100.00;102727.78;10546925;28;20043;-76
2022/10/07 04:48:45;;;;;;;0.50;0.35;;;;;;;6.81;100.00;102718.13;10563062;28;20054;-77
2022/10/07 04:53:52;;;;;;;0.15;0.15;;;;;;;6.83;100.00;102724.22;10566103;28;20050;-77
2022/10/07 04:59:01;;;;;;;0.40;0.40;;;;;;;6.79;100.00;102717.13;10562067;28;20067;-76
2022/10/07 05:04:03;;;;;;;0.43;0.43;;;;;;;6.67;100.00;102718.00;10561824;28;20097;-77
2022/10/07 05:09:07;;;;;;;0.10;0.08;;;;;;;6.70;100.00;102716.47;10545737;28;20380;-77
2022/10/07 05:14:13;;;;;;;1.30;0.82;;;;;;;6.66;100.00;102715.34;10574644;28;20054;-77
2022/10/07 05:19:16;;;;;;;0.15;0.05;;;;;;;6.66;100.00;102716.22;10568272;28;20494;-77
2022/10/07 05:24:18;;;;;;;0.17;0.17;;;;;;;6.64;100.00;102701.53;10544709;28;20046;-76
2022/10/07 05:29:21;;;;;;;0.10;0.10;;;;;;;6.63;100.00;102710.91;10542439;28;20385;-76
2022/10/07 05:34:52;;;;;;;1.10;0.22;;;;;;;6.65;100.00;102706.78;10560401;28;20459;-77
2022/10/07 05:39:55;;;;;;;0.68;0.43;;;;;;;6.59;100.00;102708.88;10583191;28;20035;-76
2022/10/07 05:44:57;;;;;;;0.10;0.00;;;;;;;6.61;100.00;102696.22;10581586;28;20036;-77
2022/10/07 05:49:59;;;;;;;0.85;0.75;;;;;;;6.67;100.00;102704.31;10581070;28;20043;-76
2022/10/07 05:55:03;;;;;;;1.15;1.05;;;;;;;6.74;100.00;102697.97;10576603;28;20050;-75
2022/10/07 06:00:06;;;;;;;0.55;0.22;;;;;;;6.74;100.00;102695.41;10567754;28;20051;-77
2022/10/07 06:05:13;;;;;;;0.10;0.10;;;;;;;6.79;100.00;102696.63;10586761;28;20078;-76
2022/10/07 06:15:36;;;;;;;0.10;0.10;;;;;;;7.17;100.00;102695.84;10569307;28;20391;-75
2022/10/07 06:20:39;;;;;;;0.30;0.25;;;;;;;7.53;100.00;102688.84;10561610;28;20486;-75
2022/10/07 06:25:41;;;;;;;0.65;0.38;;;;;;;7.65;100.00;102675.06;10582115;28;20452;-75
2022/10/07 06:30:42;;;;;;;0.10;0.10;;;;;;;7.77;100.00;102665.63;10566797;28;20402;-74
2022/10/07 06:35:44;;;;;;;0.45;0.43;;;;;;;7.94;100.00;102654.75;10554111;28;20117;-76
2022/10/07 06:41:00;;;;;;;1.67;0.40;;;;;;;8.18;100.00;102634.03;10581672;28;20058;-76
2022/10/07 06:46:08;;;;;;;0.88;0.45;;;;;;;8.38;100.00;102624.09;10568924;28;20097;-76
2022/10/07 06:51:15;;;;;;;0.73;0.30;;;;;;;8.64;100.00;102607.78;10544569;28;20048;-78
2022/10/07 06:56:46;;;;;;;3.92;0.60;;;;;;;8.89;100.00;102596.44;10564349;28;20042;-77
2022/10/07 07:01:48;;;;;;;0.10;0.10;;;;;;;9.20;100.00;102578.56;10557668;28;20048;-77
2022/10/07 07:06:56;;;;;;;8.98;1.10;;;;;;;9.53;100.00;102571.03;10553814;27;20043;-78
2022/10/07 07:11:58;;;;;;;2.30;1.75;;;;;;;9.66;100.00;102548.53;10551561;28;20414;-76
2022/10/07 07:17:05;;;;;;;2.85;1.20;;;;;;;9.92;100.00;102531.97;10565548;28;20482;-77
2022/10/07 07:22:07;;;;;;;1.45;0.30;;;;;;;10.09;100.00;102514.84;10547235;28;20516;-77
2022/10/07 07:27:13;;;;;;;0.85;0.40;;;;;;;10.36;100.00;102504.25;10555251;28;20042;-76
2022/10/07 07:32:14;;;;;;;2.67;0.35;;;;;;;10.45;100.00;102501.31;10561269;28;20044;-77
2022/10/07 07:37:17;;;;;;;2.25;1.08;;;;;;;10.96;100.00;102493.59;10557061;28;20425;-77
2022/10/07 07:42:23;;;;;;;0.55;0.40;;;;;;;11.24;100.00;102480.31;10557455;28;20516;-77
2022/10/07 07:48:17;;;;;;;0.40;0.30;;;;;;;10.91;100.00;102475.31;10563679;28;20050;-76
2022/10/07 07:53:21;;;;;;;4.07;1.13;;;;;;;11.26;100.00;102470.97;10589299;28;20038;-76
2022/10/07 07:58:24;;;;;;;0.08;0.05;;;;;;;11.49;100.00;102468.59;10553788;28;20135;-76
2022/10/07 08:03:26;;;;;;;0.98;0.63;;;;;;;11.79;100.00;102455.34;10566327;28;20549;-77
2022/10/07 08:08:29;;;;;;;0.70;0.22;;;;;;;11.87;100.00;102437.66;10564024;28;20108;-76
2022/10/07 08:13:31;;;;;;;0.15;0.15;;;;;;;12.27;100.00;102429.09;10553630;28;20048;-76
2022/10/07 08:18:34;;;;;;;0.20;0.20;;;;;;;12.18;100.00;102423.50;10564553;28;20043;-76
2022/10/07 08:23:37;;;;;;;0.00;0.00;;;;;;;12.61;100.00;102411.56;10575229;28;20043;-76
2022/10/07 08:28:39;;;;;;;0.20;0.20;;;;;;;12.85;100.00;102409.09;10569219;28;20067;-77
2022/10/07 08:33:43;;;;;;;0.55;0.47;;;;;;;12.81;100.00;102391.69;10558395;28;20047;-77
2022/10/07 08:38:46;;;;;;;8.73;0.68;;;;;;;13.53;100.00;102390.19;10580632;28;20071;-76
2022/10/07 08:43:51;;;;;;;0.35;0.30;;;;;;;13.75;100.00;102373.72;10582271;28;20482;-76
2022/10/07 08:49:03;;;;;;;4.88;2.75;;;;;;;13.84;100.00;102370.59;10562254;28;20513;-77
2022/10/07 08:54:55;;;;;;;1.75;0.90;;;;;;;13.53;100.00;102367.75;10581477;28;20043;-74
2022/10/07 09:00:02;;;;;;;0.75;0.22;;;;;;;14.26;100.00;102365.16;10574739;28;20406;-77
2022/10/07 09:05:19;;;;;;;0.10;0.10;;;;;;;14.24;100.00;102346.97;10581412;28;20498;-77
2022/10/07 09:10:36;;;;;;;0.20;0.20;;;;;;;15.27;100.00;102337.22;10554705;28;20075;-77
2022/10/07 09:15:48;;;;;;;1.55;0.85;;;;;;;15.48;100.00;102335.22;10561854;28;20086;-77
2022/10/07 09:20:54;;;;;;;8.60;0.35;;;;;;;15.03;100.00;102335.63;10581030;28;20050;-77
2022/10/07 09:25:56;;;;;;;1.00;0.75;;;;;;;15.00;100.00;102322.59;10580002;28;20070;-77
2022/10/07 09:30:59;;;;;;;1.70;1.08;;;;;;;14.88;100.00;102321.34;10580893;28;20072;-77
2022/10/07 09:36:10;;;;;;;2.50;0.30;;;;;;;15.51;100.00;102324.94;10562054;28;20407;-77
2022/10/07 09:41:20;;;;;;;0.55;0.20;;;;;;;16.35;100.00;102311.53;10579656;28;20134;-78
2022/10/07 09:46:33;;;;;;;0.00;0.00;;;;;;;15.68;100.00;102312.41;10580668;28;20084;-76
2022/10/07 09:52:22;;;;;;;0.20;0.20;;;;;;;15.91;100.00;102304.38;10558608;28;20054;-77
2022/10/07 09:57:34;;;;;;;0.85;0.82;;;;;;;15.22;100.00;102299.03;10580254;28;20040;-77
2022/10/07 10:03:26;;;;;;;1.48;0.43;;;;;;;15.68;100.00;102302.03;10580109;28;20079;-78
2022/10/07 10:08:40;;;;;;;0.57;0.30;;;;;;;15.74;100.00;102290.94;10536090;28;20414;-77
2022/10/07 10:13:42;;;;;;;0.10;0.10;;;;;;;16.69;100.00;102275.94;10522284;28;20044;-77
2022/10/07 10:18:53;;;;;;;1.17;0.55;;;;;;;16.69;100.00;102265.53;10561568;28;20067;-75
2022/10/07 10:24:05;;;;;;;0.15;0.03;;;;;;;16.71;100.00;102266.44;10580993;28;20050;-77
2022/10/07 10:29:19;;;;;;;0.25;0.25;;;;;;;16.81;100.00;102257.97;10584275;28;20039;-77
2022/10/07 10:34:34;;;;;;;0.90;0.80;;;;;;;16.71;100.00;102253.44;10561927;28;20570;-76
2022/10/07 10:40:01;;;;;;;0.55;0.17;;;;;;;16.59;100.00;102233.22;10568567;28;20055;-77
2022/10/07 10:45:14;;;;;;;0.08;0.08;;;;;;;16.90;100.00;102231.25;10576773;28;20054;-77
2022/10/07 10:50:52;;;;;;;0.00;0.00;;;;;;;17.04;100.00;102226.38;10568759;28;20127;-77
2022/10/07 10:56:16;;;;;;;0.63;0.40;;;;;;;17.65;100.00;102220.56;10586587;28;20078;-77
2022/10/07 11:08:18;;;;;;;0.25;0.22;;;;;;;17.08;100.00;102191.75;10585929;28;20466;-77
2022/10/07 11:13:42;;;;;;;0.00;0.00;;;;;;;18.16;100.00;102178.81;10568028;28;20402;-77
2022/10/07 11:18:56;;;;;;;0.00;0.00;;;;;;;18.49;100.00;102159.28;10585812;28;20042;-77
2022/10/07 11:24:02;;;;;;;0.15;0.10;;;;;;;17.81;100.00;102164.34;10586385;28;20040;-77
2022/10/07 11:29:21;;;;;;;0.00;0.00;;;;;;;17.70;100.00;102151.16;10586039;28;20042;-76
2022/10/07 11:34:52;;;;;;;0.13;0.10;;;;;;;18.18;100.00;102140.59;10584363;28;20043;-76
2022/10/07 11:39:55;;;;;;;0.15;0.15;;;;;;;18.20;100.00;102131.09;10583949;28;20067;-77
2022/10/07 11:45:19;;;;;;;2.70;0.25;;;;;;;18.22;100.00;102116.31;10584722;28;20409;-76
2022/10/07 11:57:30;;;;;;;0.00;0.00;;;;;;;17.69;100.00;102096.41;10542422;28;20417;-77
2022/10/07 12:02:38;;;;;;;0.80;0.52;;;;;;;17.11;100.00;102095.44;10578680;28;20063;-76
2022/10/07 12:08:08;;;;;;;0.10;0.10;;;;;;;17.98;100.00;102076.03;10576273;28;20130;-77
2022/10/07 12:13:09;;;;;;;0.40;0.40;;;;;;;18.52;100.00;102067.97;10565160;28;20040;-76
2022/10/07 12:18:12;;;;;;;2.40;0.70;;;;;;;17.60;100.00;102060.66;10582812;28;20465;-76
2022/10/07 12:23:17;;;;;;;0.00;0.00;;;;;;;18.26;100.00;102049.41;10564630;28;20048;-77
2022/10/07 12:28:47;;;;;;;1.10;0.20;;;;;;;17.52;100.00;102046.63;10582266;28;20508;-77
2022/10/07 12:41:06;;;;;;;2.90;0.10;;;;;;;17.54;100.00;102024.06;10572350;28;20107;-76
2022/10/07 12:46:13;;;;;;;0.30;0.00;;;;;;;17.43;100.00;102018.69;10554285;28;20075;-77
2022/10/07 12:52:07;;;;;;;1.75;1.27;;;;;;;17.64;100.00;102010.31;10568026;28;20295;-76
2022/10/07 12:57:11;;;;;;;2.53;1.55;;;;;;;17.47;100.00;102001.38;10581565;28;20050;-76
2022/10/07 13:02:40;;;;;;;0.45;0.10;;;;;;;17.45;100.00;101988.34;10594760;28;20044;-76
2022/10/07 13:08:09;;;;;;;0.00;0.00;;;;;;;17.71;100.00;101978.28;10582047;28;20047;-76
2022/10/07 13:13:19;;;;;;;2.42;0.13;;;;;;;17.43;100.00;101980.50;10546545;28;20071;-76
2022/10/07 13:31:33;;;;;;;0.52;0.30;;;;;;;17.76;100.00;101957.50;10569741;28;20040;-75
2022/10/07 13:36:42;;;;;;;1.65;0.10;;;;;;;17.38;100.00;101948.31;10580799;28;20031;-75
2022/10/07 13:41:46;;;;;;;1.17;0.28;;;;;;;17.67;100.00;101937.41;10573434;28;20047;-76
2022/10/07 13:46:58;;;;;;;0.00;0.00;;;;;;;17.26;100.00;101935.09;10580680;28;20050;-76
2022/10/07 13:52:03;;;;;;;0.65;0.20;;;;;;;17.43;100.00;101922.31;10563730;28;20051;-76
2022/10/07 14:04:30;;;;;;;0.20;0.13;;;;;;;17.92;100.00;101903.81;10583007;28;20039;-76
2022/10/07 14:09:40;;;;;;;0.35;0.10;;;;;;;17.65;100.00;101897.44;10587783;28;20082;-75
2022/10/07 14:14:44;;;;;;;0.00;0.00;;;;;;;17.61;100.00;101893.00;10569468;28;20134;-76
2022/10/07 14:19:51;;;;;;;0.00;0.00;;;;;;;17.56;100.00;101874.75;10586769;28;20043;-75
2022/10/07 14:24:55;;;;;;;0.15;0.08;;;;;;;17.40;100.00;101864.97;10587833;28;20551;-75
2022/10/07 14:29:57;;;;;;;0.20;0.00;;;;;;;17.35;100.00;101857.09;10587383;28;20101;-76
2022/10/07 14:35:19;;;;;;;0.05;0.05;;;;;;;17.56;100.00;101851.28;10586401;28;20394;-75
2022/10/07 14:40:23;;;;;;;0.00;0.00;;;;;;;17.35;100.00;101857.09;10584272;28;20045;-75
2022/10/07 14:45:24;;;;;;;0.45;0.43;;;;;;;17.17;100.00;101851.63;10584518;28;20040;-75
2022/10/07 14:50:56;;;;;;;0.00;0.00;;;;;;;17.22;100.00;101839.56;10568308;28;20071;-75
2022/10/07 14:55:58;;;;;;;2.72;0.40;;;;;;;17.10;100.00;101846.34;10540565;28;20044;-75
2022/10/07 15:01:00;;;;;;;0.25;0.25;;;;;;;17.37;100.00;101833.66;10584983;28;20486;-77
2022/10/07 15:06:02;;;;;;;1.85;0.22;;;;;;;17.10;100.00;101828.13;10584703;28;20127;-77
2022/10/07 15:11:04;;;;;;;0.00;0.00;;;;;;;17.09;100.00;101820.28;10583745;28;20130;-77
2022/10/07 15:16:14;;;;;;;0.77;0.22;;;;;;;17.03;100.00;101818.47;10577717;28;20054;-77
2022/10/07 15:22:06;;;;;;;4.68;0.20;;;;;;;16.90;100.00;101809.59;10578454;28;20050;-77
2022/10/07 15:27:08;;;;;;;0.00;0.00;;;;;;;16.80;100.00;101800.78;10570282;28;20044;-77
2022/10/07 15:32:29;;;;;;;1.02;0.47;;;;;;;16.84;100.00;101806.03;10583453;28;20047;-77
2022/10/07 15:37:32;;;;;;;0.77;0.77;;;;;;;16.72;100.00;101786.78;10558299;28;20081;-76
2022/10/07 15:42:33;;;;;;;0.55;0.10;;;;;;;16.43;100.00;101789.81;10566671;28;20071;-77
2022/10/07 15:47:36;;;;;;;0.00;0.00;;;;;;;16.37;100.00;101791.47;10581988;28;20040;-77
2022/10/07 15:52:38;;;;;;;1.65;0.30;;;;;;;16.11;100.00;101792.78;10566941;28;20044;-77
2022/10/07 15:57:39;;;;;;;0.52;0.38;;;;;;;15.91;100.00;101788.94;10573368;28;20118;-77
2022/10/07 16:02:41;;;;;;;0.00;0.00;;;;;;;15.88;100.00;101781.09;10579161;28;20050;-77
2022/10/07 16:07:42;;;;;;;0.40;0.35;;;;;;;15.79;100.00;101779.16;10574538;28;20048;-77
2022/10/07 16:12:44;;;;;;;0.32;0.05;;;;;;;15.70;100.00;101770.38;10562554;28;20039;-76
2022/10/07 16:17:46;;;;;;;0.00;0.00;;;;;;;15.58;100.00;101769.25;10570936;28;20075;-78
2022/10/07 16:22:47;;;;;;;0.00;0.00;;;;;;;15.31;100.00;101765.25;10579289;28;20048;-76
2022/10/07 16:33:11;;;;;;;0.00;0.00;;;;;;;15.12;100.00;101758.81;10569924;28;20127;-76
2022/10/07 16:38:13;;;;;;;2.40;0.15;;;;;;;14.80;100.00;101767.66;10575725;28;20048;-77
2022/10/07 16:43:15;;;;;;;2.05;0.38;;;;;;;14.67;100.00;101776.00;10571745;28;20048;-78
2022/10/07 16:48:16;;;;;;;0.10;0.10;;;;;;;14.51;100.00;101770.44;10573838;28;20119;-78
2022/10/07 16:53:19;;;;;;;0.68;0.20;;;;;;;14.34;100.00;101772.63;10582366;28;20112;-78
2022/10/07 16:58:21;;;;;;;0.00;0.00;;;;;;;14.19;100.00;101772.25;10532754;28;20143;-77
2022/10/07 17:03:22;;;;;;;2.90;0.85;;;;;;;14.01;100.00;101770.06;10574063;28;20067;-78
2022/10/07 17:08:24;;;;;;;0.10;0.10;;;;;;;13.86;100.00;101778.31;10521079;28;20082;-78
2022/10/07 17:13:29;;;;;;;0.52;0.52;;;;;;;13.62;100.00;101782.88;10564534;28;20043;-77
2022/10/07 17:18:32;;;;;;;0.10;0.10;;;;;;;13.53;100.00;101768.81;10572829;28;20067;-76
2022/10/07 17:23:34;;;;;;;1.10;0.20;;;;;;;13.39;100.00;101771.00;10548794;28;20098;-77
2022/10/07 17:28:36;;;;;;;0.13;0.10;;;;;;;13.25;100.00;101774.06;10563757;28;20044;-77
2022/10/07 17:34:02;;;;;;;0.20;0.20;;;;;;;13.11;100.00;101778.81;10548204;28;20282;-78
2022/10/07 17:46:32;;;;;;;0.28;0.25;;;;;;;12.92;100.00;101779.97;10588651;28;20020;-76
2022/10/07 17:51:37;;;;;;;0.22;0.10;;;;;;;12.68;100.00;101786.16;10579626;28;20048;-78
2022/10/07 17:56:39;;;;;;;0.15;0.10;;;;;;;12.63;100.00;101792.88;10588240;28;20047;-77
2022/10/07 18:01:41;;;;;;;0.00;0.00;;;;;;;12.63;100.00;101782.53;10586998;28;20135;-76
2022/10/07 18:06:43;;;;;;;0.22;0.22;;;;;;;12.65;100.00;101783.47;10587581;28;20147;-77
2022/10/07 18:17:07;;;;;;;1.00;0.50;;;;;;;12.49;100.00;101784.69;10559983;28;20074;-77
2022/10/07 18:22:08;;;;;;;1.08;0.73;;;;;;;12.37;100.00;101779.13;10568715;28;20054;-78
2022/10/07 18:27:14;;;;;;;0.10;0.05;;;;;;;12.49;100.00;101774.38;10551664;28;20112;-77
2022/10/07 18:32:16;;;;;;;0.03;0.03;;;;;;;12.58;100.00;101768.59;10584937;28;20050;-76
2022/10/07 18:37:17;;;;;;;0.00;0.00;;;;;;;12.42;100.00;101766.34;10568063;28;20120;-77
2022/10/07 18:42:19;;;;;;;0.17;0.05;;;;;;;12.50;100.00;101764.88;10566504;28;20052;-77
2022/10/07 18:48:14;;;;;;;0.08;0.08;;;;;;;12.56;100.00;101759.91;10572119;28;20127;-77
2022/10/07 18:53:15;;;;;;;0.10;0.10;;;;;;;12.33;100.00;101757.47;10576995;28;20394;-77
2022/10/07 18:58:19;;;;;;;0.20;0.20;;;;;;;12.34;100.00;101766.97;10570405;28;20024;-76
2022/10/07 19:03:20;;;;;;;1.80;0.28;;;;;;;12.29;100.00;101763.38;10574172;28;20122;-77
2022/10/07 19:08:22;;;;;;;0.10;0.10;;;;;;;12.25;100.00;101771.84;10569441;28;20032;-77
2022/10/07 19:18:47;;;;;;;0.20;0.20;;;;;;;12.30;100.00;101762.56;10575124;28;20044;-76
2022/10/07 19:23:53;;;;;;;0.05;0.05;;;;;;;12.21;100.00;101760.53;10560216;28;20130;-76
2022/10/07 19:28:55;;;;;;;0.10;0.10;;;;;;;12.17;100.00;101761.28;10569870;28;20077;-77
2022/10/07 19:34:02;;;;;;;0.00;0.00;;;;;;;12.08;100.00;101754.91;10540664;28;20050;-76
2022/10/07 19:39:19;;;;;;;1.75;0.82;;;;;;;12.06;100.00;101747.13;10565792;28;20040;-76
2022/10/07 19:44:49;;;;;;;0.08;0.08;;;;;;;11.95;100.00;101744.13;10577322;28;20078;-77
2022/10/07 19:49:51;;;;;;;0.32;0.10;;;;;;;11.96;100.00;101751.06;10585684;27;20066;-77
2022/10/07 19:54:53;;;;;;;0.00;0.00;;;;;;;11.87;100.00;101745.59;10560163;28;20039;-76
2022/10/07 19:59:55;;;;;;;0.57;0.43;;;;;;;11.88;100.00;101744.75;10567954;28;20044;-77
2022/10/07 20:04:56;;;;;;;0.32;0.20;;;;;;;11.84;100.00;101745.47;10579312;28;20086;-76
2022/10/07 20:09:59;;;;;;;0.52;0.17;;;;;;;11.79;100.00;101747.03;10569500;28;20395;-76
2022/10/07 20:15:00;;;;;;;0.13;0.10;;;;;;;11.75;100.00;101739.19;10548180;28;20138;-75
2022/10/07 20:20:02;;;;;;;0.10;0.10;;;;;;;11.79;100.00;101736.72;10543379;28;20036;-76
2022/10/07 20:25:04;;;;;;;2.08;0.68;;;;;;;11.77;100.00;101736.63;10555492;28;20130;-76
2022/10/07 20:30:11;;;;;;;0.10;0.10;;;;;;;11.74;100.00;101734.84;10548966;28;20479;-76
2022/10/07 20:35:18;;;;;;;0.90;0.17;;;;;;;11.91;100.00;101737.13;10567093;28;20040;-76
2022/10/07 20:45:54;;;;;;;;;;;;;;;11.90;100.00;101727.59;10579246;28;20392;-76
2022/10/07 20:51:04;;;;;;;2.95;0.43;;;;;;;11.80;100.00;101717.81;10573254;28;19934;-76
2022/10/07 20:56:05;;;;;;;0.00;0.00;;;;;;;11.79;100.00;101710.91;10571033;28;20085;-75
2022/10/07 21:01:08;;;;;;;0.20;0.13;;;;;;;11.75;100.00;101715.94;10568627;28;20043;-77
2022/10/07 21:06:10;;;;;;;1.55;1.45;;;;;;;11.86;100.00;101718.88;10571561;28;20494;-76
2022/10/07 21:11:12;;;;;;;0.00;0.00;;;;;;;11.73;100.00;101702.09;10572123;28;20119;-75
2022/10/07 21:16:15;;;;;;;1.63;0.90;;;;;;;11.73;100.00;101706.38;10564267;28;20234;-76
2022/10/07 21:21:17;;;;;;;0.10;0.10;;;;;;;11.66;100.00;101694.09;10565335;28;20042;-76
2022/10/07 21:26:19;;;;;;;1.73;0.70;;;;;;;11.63;100.00;101694.88;10570949;28;20032;-77
2022/10/07 21:31:21;;;;;;;0.40;0.20;;;;;;;11.60;100.00;101687.03;10563942;28;20109;-77
2022/10/07 21:36:23;;;;;;;0.45;0.35;;;;;;;11.60;100.00;101679.28;10563077;28;20051;-76
2022/10/07 21:41:30;;;;;;;1.80;1.30;;;;;;;11.54;100.00;101684.22;10586067;28;20048;-76
2022/10/07 21:46:35;;;;;;;0.17;0.15;;;;;;;11.60;100.00;101679.28;10561419;28;20086;-76
2022/10/07 21:51:37;;;;;;;0.52;0.28;;;;;;;11.54;100.00;101669.63;10581852;28;20067;-77
2022/10/07 21:56:39;;;;;;;0.30;0.30;;;;;;;11.62;100.00;101666.41;10554017;28;20110;-76
2022/10/07 22:01:41;;;;;;;0.03;0.03;;;;;;;11.60;100.00;101658.63;10555692;28;20398;-75
2022/10/07 22:12:07;;;;;;;5.28;0.52;;;;;;;11.73;100.00;101655.63;10562938;28;20047;-76
2022/10/07 22:17:10;;;;;;;0.47;0.28;;;;;;;11.71;100.00;101641.81;10557568;28;20040;-76
2022/10/07 22:22:12;;;;;;;0.20;0.20;;;;;;;11.69;100.00;101653.78;10550456;28;20114;-75
2022/10/07 22:27:15;;;;;;;0.10;0.10;;;;;;;11.62;100.00;101657.00;10598289;27;20465;-76
2022/10/07 22:32:18;;;;;;;0.00;0.00;;;;;;;11.57;100.00;101659.41;10596220;27;20048;-76
2022/10/07 22:38:16;;;;;;;0.47;0.17;;;;;;;11.65;100.00;101667.44;10580626;27;20053;-76
2022/10/07 22:43:17;;;;;;;0.00;0.00;;;;;;;11.49;100.00;101654.81;10571660;27;20438;-74
2022/10/07 22:48:19;;;;;;;0.20;0.20;;;;;;;11.53;100.00;101646.34;10590756;27;20059;-76
2022/10/07 22:53:25;;;;;;;0.95;0.22;;;;;;;11.39;100.00;101641.59;10588910;27;20058;-78
2022/10/07 22:58:26;;;;;;;1.45;0.70;;;;;;;11.48;100.00;101635.88;10557284;27;20142;-76
2022/10/07 23:03:32;;;;;;;1.13;0.32;;;;;;;11.52;100.00;101637.75;10572544;27;20039;-77
2022/10/07 23:08:35;;;;;;;0.50;0.50;;;;;;;11.49;100.00;101623.84;10572799;28;20046;-76
2022/10/07 23:13:36;;;;;;;0.00;0.00;;;;;;;11.42;100.00;101623.66;10564417;27;20126;-77
2022/10/07 23:18:41;;;;;;;7.47;0.52;;;;;;;11.47;100.00;101620.34;10584884;27;20368;-76
2022/10/07 23:23:46;;;;;;;0.68;0.20;;;;;;;11.49;100.00;101619.56;10583379;27;20472;-76
2022/10/07 23:28:50;;;;;;;0.05;0.05;;;;;;;11.67;100.00;101613.25;10595534;27;20122;-76
2022/10/07 23:33:53;;;;;;;0.35;0.30;;;;;;;11.62;100.00;101610.53;10588611;27;20047;-76
2022/10/07 23:38:56;;;;;;;0.20;0.20;;;;;;;11.54;100.00;101599.06;10576156;27;20467;-76
2022/10/07 23:44:03;;;;;;;0.00;0.00;;;;;;;11.54;100.00;101593.91;10583840;28;20044;-75
2022/10/07 23:49:05;;;;;;;0.00;0.00;;;;;;;11.37;100.00;101589.06;10566002;27;20039;-76
2022/10/07 23:54:06;;;;;;;1.13;0.22;;;;;;;11.42;100.00;101587.53;10567535;28;20112;-76
2022/10/07 23:59:08;;;;;;;1.05;0.80;;;;;;;11.47;100.00;101579.06;10573233;27;20046;-76
